createdAt,value
2022-10-02T00:01:12.948Z,17.30
2022-10-02T00:03:42.670Z,15.13
2022-10-02T00:06:18.885Z,15.70
2022-10-02T00:08:46.325Z,16.33
2022-10-02T00:11:19.712Z,15.60
2022-10-02T00:13:55.661Z,18.80
2022-10-02T00:16:36.331Z,21.03
2022-10-02T00:19:04.022Z,16.80
2022-10-02T00:21:46.008Z,18.37
2022-10-02T00:24:16.638Z,19.63
2022-10-02T00:26:56.150Z,25.90
2022-10-02T00:29:28.971Z,27.30
2022-10-02T00:32:07.919Z,20.97
2022-10-02T00:34:40.590Z,21.77
2022-10-02T00:37:20.911Z,21.87
2022-10-02T00:40:25.074Z,22.67
2022-10-02T00:43:01.769Z,23.10
2022-10-02T00:45:34.125Z,20.57
2022-10-02T00:48:31.884Z,20.37
2022-10-02T00:51:09.427Z,24.57
2022-10-02T00:53:46.212Z,20.27
2022-10-02T00:56:48.060Z,27.60
2022-10-02T00:59:51.350Z,19.33
2022-10-02T01:02:24.101Z,21.80
2022-10-02T01:04:50.650Z,21.90
2022-10-02T01:07:17.243Z,22.13
2022-10-02T01:09:44.548Z,18.90
2022-10-02T01:12:11.720Z,17.73
2022-10-02T01:14:40.350Z,25.77
2022-10-02T01:17:38.429Z,23.60
2022-10-02T01:20:06.098Z,22.53
2022-10-02T01:22:51.112Z,22.50
2022-10-02T01:25:17.698Z,19.53
2022-10-02T01:27:44.314Z,20.13
2022-10-02T01:30:18.149Z,29.13
2022-10-02T01:32:50.009Z,20.73
2022-10-02T01:35:17.232Z,21.00
2022-10-02T01:37:44.651Z,23.23
2022-10-02T01:40:23.981Z,23.97
2022-10-02T01:42:50.659Z,26.87
2022-10-02T01:45:17.339Z,30.47
2022-10-02T01:47:51.913Z,26.60
2022-10-02T01:50:35.723Z,23.47
2022-10-02T01:53:16.138Z,26.07
2022-10-02T01:55:57.957Z,23.50
2022-10-02T01:58:39.496Z,25.20
2022-10-02T02:01:24.528Z,30.43
2022-10-02T02:04:14.066Z,24.53
2022-10-02T02:06:52.694Z,24.33
2022-10-02T02:09:28.949Z,23.27
2022-10-02T02:12:19.681Z,25.50
2022-10-02T02:15:00.147Z,28.70
2022-10-02T02:17:48.695Z,22.93
2022-10-02T02:20:38.191Z,33.93
2022-10-02T02:23:07.626Z,28.60
2022-10-02T02:25:38.277Z,29.37
2022-10-02T02:28:08.252Z,27.13
2022-10-02T02:30:36.877Z,23.67
2022-10-02T02:33:12.426Z,27.13
2022-10-02T02:35:44.989Z,28.30
2022-10-02T02:38:27.987Z,23.27
2022-10-02T02:40:57.619Z,26.67
2022-10-02T02:43:28.572Z,29.83
2022-10-02T02:45:57.566Z,27.60
2022-10-02T02:48:34.631Z,31.50
2022-10-02T02:51:03.991Z,22.23
2022-10-02T02:53:33.372Z,26.53
2022-10-02T02:56:01.311Z,22.90
2022-10-02T02:58:35.121Z,27.77
2022-10-02T03:01:01.696Z,30.87
2022-10-02T03:03:28.242Z,29.17
2022-10-02T03:06:17.430Z,24.93
2022-10-02T03:08:44.850Z,29.03
2022-10-02T03:11:23.549Z,26.97
2022-10-02T03:14:11.029Z,26.20
2022-10-02T03:17:15.318Z,35.33
2022-10-02T03:19:52.897Z,29.23
2022-10-02T03:22:35.548Z,33.30
2022-10-02T03:25:21.445Z,21.37
2022-10-02T03:27:59.014Z,32.57
2022-10-02T03:30:26.243Z,29.83
2022-10-02T03:32:53.657Z,26.07
2022-10-02T03:35:21.422Z,27.83
2022-10-02T03:37:50.766Z,26.00
2022-10-02T03:40:17.295Z,28.27
2022-10-02T03:42:43.823Z,34.47
2022-10-02T03:45:10.487Z,30.30
2022-10-02T03:47:37.029Z,29.17
2022-10-02T03:50:03.928Z,36.00
2022-10-02T03:52:31.765Z,32.57
2022-10-02T03:55:03.268Z,27.13
2022-10-02T03:57:30.731Z,26.97
2022-10-02T04:00:08.966Z,26.40
2022-10-02T04:03:04.990Z,28.43
2022-10-02T04:05:55.447Z,29.97
2022-10-02T04:08:29.188Z,31.73
2022-10-02T04:11:14.367Z,31.67
2022-10-02T04:13:49.685Z,29.23
2022-10-02T04:16:18.896Z,32.63
2022-10-02T04:18:58.981Z,27.00
2022-10-02T04:21:42.603Z,28.77
2022-10-02T04:24:21.691Z,27.63
2022-10-02T04:27:00.412Z,29.23
2022-10-02T04:29:31.818Z,37.97
2022-10-02T04:32:12.861Z,34.00
2022-10-02T04:34:39.903Z,30.70
2022-10-02T04:37:37.028Z,35.37
2022-10-02T04:40:22.219Z,27.70
2022-10-02T04:43:00.138Z,28.97
2022-10-02T04:45:33.661Z,29.77
2022-10-02T04:48:29.356Z,29.70
2022-10-02T04:51:17.838Z,27.50
2022-10-02T04:53:50.359Z,30.80
2022-10-02T04:56:26.175Z,30.17
2022-10-02T04:59:11.239Z,31.13
2022-10-02T05:01:53.878Z,25.57
2022-10-02T05:04:29.430Z,27.00
2022-10-02T05:07:14.710Z,26.13
2022-10-02T05:10:19.787Z,24.80
2022-10-02T05:13:04.377Z,24.70
2022-10-02T05:16:07.547Z,21.33
2022-10-02T05:19:11.435Z,20.13
2022-10-02T05:21:50.613Z,15.10
2022-10-02T05:24:30.527Z,21.03
2022-10-02T05:27:30.782Z,20.97
2022-10-02T05:30:13.706Z,15.03
2022-10-02T05:33:11.456Z,24.20
2022-10-02T05:35:48.293Z,12.40
2022-10-02T05:38:39.872Z,17.13
2022-10-02T05:41:16.994Z,15.53
2022-10-02T05:43:49.733Z,21.60
2022-10-02T05:46:27.339Z,25.30
2022-10-02T05:49:00.778Z,18.37
2022-10-02T05:51:50.628Z,18.93
2022-10-02T05:54:22.690Z,22.63
2022-10-02T05:56:56.794Z,15.67
2022-10-02T05:59:36.057Z,11.83
2022-10-02T06:02:08.588Z,17.58
2022-10-02T06:04:38.341Z,15.50
2022-10-02T06:07:08.937Z,12.53
2022-10-02T06:09:36.200Z,11.17
2022-10-02T06:12:17.969Z,13.57
2022-10-02T06:14:50.832Z,14.33
2022-10-02T06:17:26.356Z,12.23
2022-10-02T06:20:28.925Z,12.40
2022-10-02T06:23:09.984Z,15.67
2022-10-02T06:25:43.658Z,10.93
2022-10-02T06:28:25.428Z,9.03
2022-10-02T06:31:01.309Z,9.90
2022-10-02T06:33:30.926Z,12.50
2022-10-02T06:36:30.491Z,14.60
2022-10-02T06:39:21.488Z,8.97
2022-10-02T06:42:14.517Z,12.73
2022-10-02T06:45:03.726Z,10.60
2022-10-02T06:47:52.025Z,11.20
2022-10-02T06:50:40.820Z,17.60
2022-10-02T06:53:17.686Z,11.83
2022-10-02T06:56:09.251Z,11.50
2022-10-02T06:58:45.885Z,16.73
2022-10-02T07:01:27.740Z,15.10
2022-10-02T07:04:07.718Z,15.97
2022-10-02T07:06:55.778Z,13.37
2022-10-02T07:09:34.399Z,15.87
2022-10-02T07:12:20.023Z,19.33
2022-10-02T07:15:01.784Z,28.20
2022-10-02T07:17:37.597Z,19.13
2022-10-02T07:20:25.576Z,20.80
2022-10-02T07:23:01.724Z,16.37
2022-10-02T07:25:53.129Z,19.30
2022-10-02T07:29:04.720Z,22.33
2022-10-02T07:32:00.646Z,20.37
2022-10-02T07:34:45.343Z,22.67
2022-10-02T07:37:20.039Z,18.80
2022-10-02T07:39:55.905Z,17.97
2022-10-02T07:42:42.001Z,17.80
2022-10-02T07:45:26.609Z,18.47
2022-10-02T07:48:02.393Z,25.90
2022-10-02T07:50:53.753Z,26.33
2022-10-02T07:53:20.296Z,19.13
2022-10-02T07:55:52.403Z,22.07
2022-10-02T07:58:29.073Z,25.60
2022-10-02T08:01:00.269Z,19.67
2022-10-02T08:03:35.729Z,22.73
2022-10-02T08:06:03.222Z,24.47
2022-10-02T08:08:38.671Z,30.23
2022-10-02T08:11:34.426Z,25.00
2022-10-02T08:14:38.144Z,21.93
2022-10-02T08:17:14.812Z,18.47
2022-10-02T08:19:45.720Z,23.47
2022-10-02T08:22:18.194Z,20.97
2022-10-02T08:24:52.267Z,25.57
2022-10-02T08:27:21.733Z,25.83
2022-10-02T08:30:03.232Z,34.83
2022-10-02T08:32:36.490Z,25.30
2022-10-02T08:35:12.107Z,19.73
2022-10-02T08:37:44.694Z,18.77
2022-10-02T08:41:05.183Z,20.53
2022-10-02T08:43:34.306Z,21.47
2022-10-02T08:46:16.964Z,14.67
2022-10-02T08:49:37.746Z,18.63
2022-10-02T08:52:16.381Z,30.70
2022-10-02T08:55:10.597Z,15.73
2022-10-02T08:58:03.000Z,21.83
2022-10-02T09:01:10.251Z,23.77
2022-10-02T09:03:36.835Z,17.03
2022-10-02T09:06:09.343Z,16.57
2022-10-02T09:09:00.599Z,20.87
2022-10-02T09:11:45.140Z,21.67
2022-10-02T09:14:34.855Z,19.57
2022-10-02T09:17:16.861Z,28.50
2022-10-02T09:20:13.515Z,25.90
2022-10-02T09:22:52.249Z,24.03
2022-10-02T09:25:31.443Z,17.23
2022-10-02T09:28:07.038Z,16.20
2022-10-02T09:31:10.642Z,20.77
2022-10-02T09:34:02.247Z,22.23
2022-10-02T09:37:04.274Z,16.13
2022-10-02T09:39:36.667Z,18.77
2022-10-02T09:42:25.169Z,19.00
2022-10-02T09:45:29.273Z,23.00
2022-10-02T09:48:34.199Z,21.37
2022-10-02T09:51:19.249Z,22.07
2022-10-02T09:54:01.364Z,18.10
2022-10-02T09:56:55.286Z,21.47
2022-10-02T09:59:49.929Z,17.90
2022-10-02T10:02:30.186Z,14.60
2022-10-02T10:05:40.412Z,20.83
2022-10-02T10:08:43.993Z,23.43
2022-10-02T10:11:42.974Z,18.63
2022-10-02T10:14:33.864Z,16.80
2022-10-02T10:17:42.351Z,21.87
2022-10-02T10:20:24.327Z,24.43
2022-10-02T10:23:09.231Z,23.40
2022-10-02T10:25:44.957Z,23.23
2022-10-02T10:28:20.382Z,19.90
2022-10-02T10:31:14.230Z,18.70
2022-10-02T10:33:58.070Z,17.73
2022-10-02T10:36:49.489Z,19.17
2022-10-02T10:39:58.365Z,17.93
2022-10-02T10:42:50.000Z,18.20
2022-10-02T10:45:36.635Z,19.80
2022-10-02T10:48:31.239Z,19.97
2022-10-02T10:51:16.451Z,21.10
2022-10-02T10:54:08.707Z,17.80
2022-10-02T10:56:44.545Z,22.93
2022-10-02T10:59:29.260Z,17.57
2022-10-02T11:02:20.860Z,15.27
2022-10-02T11:04:53.392Z,13.63
2022-10-02T11:07:41.988Z,13.27
2022-10-02T11:10:40.797Z,17.83
2022-10-02T11:13:42.620Z,14.47
2022-10-02T11:16:35.474Z,12.73
2022-10-02T11:19:10.942Z,11.67
2022-10-02T11:22:25.076Z,13.73
2022-10-02T11:25:13.535Z,13.40
2022-10-02T11:28:18.775Z,12.27
2022-10-02T11:31:04.231Z,18.40
2022-10-02T11:34:00.556Z,15.27
2022-10-02T11:36:46.648Z,16.67
2022-10-02T11:39:13.372Z,15.30
2022-10-02T11:42:05.824Z,6.30
2022-10-02T11:44:49.255Z,15.27
2022-10-02T11:47:38.427Z,8.70
2022-10-02T11:50:30.859Z,24.90
2022-10-02T11:53:09.278Z,11.27
2022-10-02T11:55:49.450Z,9.37
2022-10-02T11:58:45.308Z,11.60
2022-10-02T12:01:24.474Z,13.60
2022-10-02T12:04:18.761Z,10.13
2022-10-02T12:06:48.216Z,10.17
2022-10-02T12:09:36.142Z,32.43
2022-10-02T12:12:02.525Z,15.37
2022-10-02T12:14:32.050Z,9.53
2022-10-02T12:17:46.531Z,20.50
2022-10-02T12:21:09.877Z,7.27
2022-10-02T12:24:08.986Z,7.90
2022-10-02T12:26:59.309Z,9.70
2022-10-02T12:29:44.686Z,12.13
2022-10-02T12:32:38.877Z,14.80
2022-10-02T12:35:44.053Z,11.83
2022-10-02T12:38:23.326Z,14.00
2022-10-02T12:41:17.564Z,12.07
2022-10-02T12:44:02.316Z,13.83
2022-10-02T12:46:47.750Z,9.93
2022-10-02T12:49:25.347Z,11.70
2022-10-02T12:51:57.701Z,11.00
2022-10-02T12:54:47.115Z,10.43
2022-10-02T12:57:53.646Z,10.90
2022-10-02T13:00:25.113Z,12.00
2022-10-02T13:03:05.799Z,9.93
2022-10-02T13:06:10.787Z,11.07
2022-10-02T13:08:43.966Z,14.77
2022-10-02T13:11:22.740Z,12.87
2022-10-02T13:13:49.431Z,14.77
2022-10-02T13:16:34.919Z,12.47
2022-10-02T13:19:12.198Z,9.83
2022-10-02T13:22:02.213Z,9.63
2022-10-02T13:24:31.727Z,9.83
2022-10-02T13:27:26.336Z,9.43
2022-10-02T13:29:58.789Z,8.13
2022-10-02T13:32:31.999Z,13.33
2022-10-02T13:35:29.644Z,9.67
2022-10-02T13:38:41.664Z,13.43
2022-10-02T13:41:39.055Z,10.63
2022-10-02T13:44:14.680Z,11.33
2022-10-02T13:46:59.807Z,11.73
2022-10-02T13:49:58.964Z,11.53
2022-10-02T13:52:50.311Z,13.53
2022-10-02T13:55:22.772Z,12.87
2022-10-02T13:58:11.180Z,12.07
2022-10-02T14:00:37.638Z,9.80
2022-10-02T14:03:09.878Z,8.20
2022-10-02T14:05:57.027Z,9.63
2022-10-02T14:08:52.337Z,12.00
2022-10-02T14:11:38.277Z,9.07
2022-10-02T14:14:36.469Z,7.80
2022-10-02T14:17:21.735Z,9.47
2022-10-02T14:20:15.242Z,10.37
2022-10-02T14:22:50.888Z,7.90
2022-10-02T14:25:56.652Z,8.57
2022-10-02T14:28:51.953Z,11.37
2022-10-02T14:31:37.411Z,13.83
2022-10-02T14:34:04.077Z,12.60
2022-10-02T14:36:52.300Z,9.30
2022-10-02T14:39:24.907Z,10.83
2022-10-02T14:41:57.473Z,9.93
2022-10-02T14:44:46.066Z,10.73
2022-10-02T14:47:24.674Z,9.53
2022-10-02T14:49:58.280Z,12.50
2022-10-02T14:52:31.198Z,8.73
2022-10-02T14:55:25.828Z,12.47
2022-10-02T14:58:17.407Z,20.87
2022-10-02T15:00:47.086Z,12.47
2022-10-02T15:03:38.503Z,9.10
2022-10-02T15:06:30.383Z,8.93
2022-10-02T15:09:05.442Z,9.70
2022-10-02T15:11:35.871Z,10.00
2022-10-02T15:14:17.614Z,9.77
2022-10-02T15:17:48.196Z,10.07
2022-10-02T15:20:42.203Z,23.73
2022-10-02T15:23:13.816Z,12.83
2022-10-02T15:25:43.368Z,12.50
2022-10-02T15:28:44.117Z,11.00
2022-10-02T15:31:21.476Z,12.37
2022-10-02T15:34:09.676Z,11.20
2022-10-02T15:37:12.790Z,8.70
2022-10-02T15:39:42.194Z,11.37
2022-10-02T15:42:10.060Z,8.87
2022-10-02T15:44:45.555Z,11.63
2022-10-02T15:47:32.145Z,14.20
2022-10-02T15:50:27.770Z,11.03
2022-10-02T15:53:05.526Z,10.13
2022-10-02T15:55:31.953Z,10.03
2022-10-02T15:58:36.002Z,10.33
2022-10-02T16:01:33.475Z,8.50
2022-10-02T16:04:07.973Z,8.60
2022-10-02T16:07:10.496Z,9.73
2022-10-02T16:09:50.092Z,7.63
2022-10-02T16:12:22.588Z,10.17
2022-10-02T16:14:59.332Z,8.63
2022-10-02T16:17:33.770Z,11.13
2022-10-02T16:20:02.997Z,8.90
2022-10-02T16:23:00.425Z,10.80
2022-10-02T16:25:48.272Z,12.20
2022-10-02T16:28:21.793Z,11.60
2022-10-02T16:30:48.268Z,11.10
2022-10-02T16:33:43.413Z,7.97
2022-10-02T16:36:38.129Z,7.13
2022-10-02T16:39:14.578Z,9.87
2022-10-02T16:41:58.478Z,7.47
2022-10-02T16:44:55.767Z,11.57
2022-10-02T16:47:53.299Z,11.80
2022-10-02T16:50:25.079Z,8.27
2022-10-02T16:53:12.974Z,10.80
2022-10-02T16:55:45.460Z,13.03
2022-10-02T16:58:35.313Z,7.93
2022-10-02T17:01:23.726Z,8.83
2022-10-02T17:04:21.376Z,10.10
2022-10-02T17:07:18.074Z,6.37
2022-10-02T17:09:48.626Z,6.63
2022-10-02T17:12:30.478Z,9.63
2022-10-02T17:15:05.380Z,9.93
2022-10-02T17:17:53.395Z,8.33
2022-10-02T17:20:57.187Z,5.23
2022-10-02T17:23:44.028Z,12.17
2022-10-02T17:26:44.078Z,9.17
2022-10-02T17:29:13.408Z,7.77
2022-10-02T17:31:58.675Z,6.07
2022-10-02T17:34:33.112Z,9.07
2022-10-02T17:37:08.965Z,7.37
2022-10-02T17:40:05.492Z,9.07
2022-10-02T17:42:34.989Z,6.97
2022-10-02T17:45:01.441Z,7.07
2022-10-02T17:47:51.823Z,9.37
2022-10-02T17:50:27.522Z,7.60
2022-10-02T17:53:24.231Z,11.07
2022-10-02T17:56:27.681Z,12.70
2022-10-02T17:59:17.208Z,11.77
2022-10-02T18:02:00.977Z,10.87
2022-10-02T18:04:27.544Z,11.13
2022-10-02T18:07:16.845Z,9.40
2022-10-02T18:10:31.600Z,11.03
2022-10-02T18:13:43.038Z,14.73
2022-10-02T18:16:29.632Z,10.73
2022-10-02T18:19:02.282Z,9.50
2022-10-02T18:21:35.037Z,10.43
2022-10-02T18:24:04.920Z,6.43
2022-10-02T18:27:08.783Z,11.07
2022-10-02T18:30:10.646Z,7.80
2022-10-02T18:33:07.000Z,10.40
2022-10-02T18:36:10.869Z,8.73
2022-10-02T18:38:55.931Z,9.20
2022-10-02T18:41:41.185Z,9.60
2022-10-02T18:44:20.947Z,6.73
2022-10-02T18:47:37.198Z,10.63
2022-10-02T18:50:31.268Z,9.27
2022-10-02T18:53:35.587Z,7.77
2022-10-02T18:56:10.036Z,10.50
2022-10-02T18:58:48.998Z,8.07
2022-10-02T19:01:15.721Z,9.70
2022-10-02T19:04:11.261Z,8.17
2022-10-02T19:07:03.026Z,10.67
2022-10-02T19:09:30.846Z,11.33
2022-10-02T19:12:01.345Z,13.80
2022-10-02T19:14:33.624Z,11.07
2022-10-02T19:17:10.949Z,9.53
2022-10-02T19:19:39.915Z,10.63
2022-10-02T19:22:25.838Z,11.07
2022-10-02T19:24:56.660Z,7.67
2022-10-02T19:27:32.869Z,9.57
2022-10-02T19:30:23.454Z,12.90
2022-10-02T19:32:51.636Z,10.70
2022-10-02T19:35:20.954Z,11.93
2022-10-02T19:37:51.377Z,7.93
2022-10-02T19:40:25.430Z,10.63
2022-10-02T19:43:08.601Z,8.77
2022-10-02T19:45:36.086Z,9.47
2022-10-02T19:48:08.248Z,12.13
2022-10-02T19:50:44.440Z,9.77
2022-10-02T19:53:26.908Z,11.13
2022-10-02T19:55:56.393Z,9.30
2022-10-02T19:58:49.969Z,10.77
2022-10-02T20:01:21.442Z,10.47
2022-10-02T20:03:51.843Z,11.00
2022-10-02T20:06:21.167Z,6.50
2022-10-02T20:09:22.826Z,6.57
2022-10-02T20:11:59.679Z,6.13
2022-10-02T20:14:31.143Z,8.73
2022-10-02T20:17:09.797Z,11.97
2022-10-02T20:19:43.459Z,7.97
2022-10-02T20:22:31.897Z,9.13
2022-10-02T20:25:06.590Z,10.17
2022-10-02T20:27:44.306Z,10.30
2022-10-02T20:30:19.668Z,10.50
2022-10-02T20:32:54.318Z,9.60
2022-10-02T20:35:25.608Z,12.47
2022-10-02T20:37:54.635Z,18.27
2022-10-02T20:40:26.510Z,10.53
2022-10-02T20:43:02.528Z,6.07
2022-10-02T20:45:54.997Z,9.57
2022-10-02T20:49:06.486Z,7.50
2022-10-02T20:51:52.766Z,9.67
2022-10-02T20:54:23.931Z,12.83
2022-10-02T20:57:19.057Z,11.73
2022-10-02T20:59:57.914Z,12.30
2022-10-02T21:02:45.058Z,7.13
2022-10-02T21:05:31.187Z,7.83
2022-10-02T21:08:13.006Z,7.17
2022-10-02T21:11:01.181Z,7.83
2022-10-02T21:13:58.900Z,10.33
2022-10-02T21:16:57.669Z,9.57
2022-10-02T21:19:48.707Z,11.67
2022-10-02T21:22:33.959Z,11.50
2022-10-02T21:25:42.552Z,9.23
2022-10-02T21:28:31.165Z,10.03
2022-10-02T21:31:22.507Z,9.40
2022-10-02T21:33:59.691Z,9.90
2022-10-02T21:36:26.149Z,10.27
2022-10-02T21:39:23.158Z,8.27
2022-10-02T21:42:08.653Z,7.13
2022-10-02T21:44:48.083Z,11.03
2022-10-02T21:47:37.597Z,9.37
2022-10-02T21:50:14.250Z,9.60
2022-10-02T21:53:22.374Z,8.80
2022-10-02T21:59:35.590Z,7.00
2022-10-02T22:02:20.669Z,5.93
2022-10-02T22:05:26.238Z,9.30
2022-10-02T22:08:21.265Z,4.67
2022-10-02T22:11:12.225Z,9.73
2022-10-02T22:13:40.818Z,8.17
2022-10-02T22:16:13.717Z,8.20
2022-10-02T22:18:55.522Z,6.10
2022-10-02T22:21:35.124Z,9.73
2022-10-02T22:24:10.646Z,11.30
2022-10-02T22:27:11.473Z,12.77
2022-10-02T22:29:54.904Z,10.23
2022-10-02T22:32:49.368Z,10.63
2022-10-02T22:35:33.889Z,14.27
2022-10-02T22:38:11.575Z,15.97
2022-10-02T22:41:02.395Z,11.13
2022-10-02T22:43:58.283Z,12.23
2022-10-02T22:46:31.042Z,12.17
2022-10-02T22:49:03.413Z,14.23
2022-10-02T22:52:15.429Z,14.43
2022-10-02T22:54:58.220Z,13.47
2022-10-02T22:57:45.512Z,10.87
2022-10-02T23:00:24.338Z,16.90
2022-10-02T23:03:03.985Z,11.13
2022-10-02T23:05:41.235Z,12.37
2022-10-02T23:08:13.841Z,14.60
2022-10-02T23:10:55.332Z,10.53
2022-10-02T23:13:28.556Z,13.10
2022-10-02T23:16:05.127Z,13.63
2022-10-02T23:18:50.033Z,11.60
2022-10-02T23:21:22.157Z,9.53
2022-10-02T23:23:55.946Z,12.83
2022-10-02T23:26:31.832Z,8.60
2022-10-02T23:29:26.041Z,11.97
2022-10-02T23:31:55.775Z,9.20
2022-10-02T23:34:41.393Z,11.93
2022-10-02T23:37:19.488Z,17.37
2022-10-02T23:39:54.316Z,14.87
2022-10-02T23:42:28.032Z,10.63
2022-10-02T23:45:24.093Z,9.20
2022-10-02T23:48:04.653Z,12.23
2022-10-02T23:50:33.978Z,12.90
2022-10-02T23:53:27.988Z,13.77
2022-10-02T23:56:12.121Z,14.07
2022-10-02T23:58:38.775Z,11.20
